Time;durP1;ratioP1;P1;durP2;ratioP2;P2;SDS_P1;SDS_P2;PMS_P1;PMS_P2;Temp;Humidity;BMP_temperature;BMP_pressure;BME280_temperature;BME280_humidity;BME280_pressure;Samples;Min_cycle;Max_cycle;Signal;HPM_P1;HPM_P2
2021/05/09 00:00:52;;;;;;;2.75;1.98;;;11.00;99.90;;;;;;5009727;28;20226;-68
2021/05/09 00:03:19;;;;;;;1.83;1.50;;;11.00;99.90;;;;;;5009684;28;20209;-69
2021/05/09 00:05:45;;;;;;;3.00;1.85;;;11.00;99.90;;;;;;5009852;28;20194;-69
2021/05/09 00:08:11;;;;;;;2.10;1.90;;;11.00;99.90;;;;;;5009159;28;20218;-69
2021/05/09 00:10:38;;;;;;;3.45;1.90;;;11.00;99.90;;;;;;5009329;28;20222;-69
2021/05/09 00:13:04;;;;;;;2.65;1.90;;;11.10;99.90;;;;;;5009633;28;20245;-70
2021/05/09 00:15:31;;;;;;;1.65;1.55;;;11.10;99.90;;;;;;5009171;28;20222;-69
2021/05/09 00:17:57;;;;;;;2.10;1.63;;;11.10;99.90;;;;;;5008767;28;20209;-69
2021/05/09 00:20:23;;;;;;;2.03;1.80;;;11.10;99.90;;;;;;5009235;28;20223;-69
2021/05/09 00:22:50;;;;;;;2.17;1.63;;;11.20;99.90;;;;;;5009565;28;20264;-69
2021/05/09 00:25:16;;;;;;;4.63;2.35;;;11.10;99.90;;;;;;5009446;28;20570;-69
2021/05/09 00:27:43;;;;;;;1.70;1.40;;;11.10;99.90;;;;;;5009127;28;20203;-69
2021/05/09 00:30:10;;;;;;;2.42;1.70;;;11.00;99.90;;;;;;5009265;28;20594;-69
2021/05/09 00:32:38;;;;;;;2.00;1.70;;;11.00;99.90;;;;;;5009392;28;20206;-69
2021/05/09 00:35:05;;;;;;;2.33;1.67;;;11.00;99.90;;;;;;5009534;28;20209;-69
2021/05/09 00:37:32;;;;;;;2.45;2.25;;;10.90;99.90;;;;;;5009523;28;20206;-70
2021/05/09 00:39:58;;;;;;;1.80;1.63;;;10.70;99.90;;;;;;5009051;28;20234;-70
2021/05/09 00:42:24;;;;;;;1.70;1.60;;;10.40;99.90;;;;;;5009327;28;20207;-69
2021/05/09 00:44:51;;;;;;;2.25;1.90;;;10.30;99.90;;;;;;5009516;28;20203;-70
2021/05/09 00:47:17;;;;;;;2.13;1.95;;;10.10;99.90;;;;;;5009348;28;20210;-69
2021/05/09 00:49:44;;;;;;;3.95;2.15;;;10.00;99.90;;;;;;5008590;28;20234;-68
2021/05/09 00:52:12;;;;;;;2.35;1.88;;;9.90;99.90;;;;;;5009538;28;20569;-69
2021/05/09 00:54:44;;;;;;;1.83;1.65;;;9.70;99.90;;;;;;5009182;28;20289;-70
2021/05/09 00:57:12;;;;;;;2.08;1.65;;;9.70;99.90;;;;;;5009249;28;20226;-67
2021/05/09 00:59:42;;;;;;;3.05;1.90;;;9.50;99.90;;;;;;5008615;28;20223;-69
2021/05/09 01:02:09;;;;;;;2.55;1.95;;;9.40;99.90;;;;;;5009054;28;20206;-68
2021/05/09 01:04:36;;;;;;;2.55;1.70;;;9.40;99.90;;;;;;5009071;28;20210;-69
2021/05/09 01:07:03;;;;;;;2.35;2.13;;;9.20;99.90;;;;;;5009317;28;20579;-70
2021/05/09 01:09:30;;;;;;;2.45;1.98;;;9.10;99.90;;;;;;5008472;28;20218;-70
2021/05/09 01:11:56;;;;;;;2.35;2.00;;;9.00;99.90;;;;;;5009287;28;20206;-69
2021/05/09 01:14:22;;;;;;;2.15;1.95;;;9.00;99.90;;;;;;5008887;28;20202;-69
2021/05/09 01:16:48;;;;;;;2.42;2.03;;;8.90;99.90;;;;;;5008907;28;20223;-69
2021/05/09 01:19:15;;;;;;;2.75;2.30;;;8.90;99.90;;;;;;5008416;28;20231;-69
2021/05/09 01:21:42;;;;;;;2.75;2.10;;;8.70;99.90;;;;;;5008868;28;20210;-69
2021/05/09 01:24:10;;;;;;;2.45;2.25;;;8.70;99.90;;;;;;5012035;28;20585;-68
2021/05/09 01:26:36;;;;;;;3.08;2.40;;;8.70;99.90;;;;;;5012483;28;20202;-69
2021/05/09 01:29:03;;;;;;;2.00;1.80;;;8.60;99.90;;;;;;5012026;28;20214;-69
2021/05/09 01:31:29;;;;;;;2.38;2.00;;;8.60;99.90;;;;;;5012315;28;20225;-69
2021/05/09 01:33:56;;;;;;;2.20;2.00;;;8.60;99.90;;;;;;5012620;28;20207;-69
2021/05/09 01:36:22;;;;;;;2.50;2.30;;;8.50;99.90;;;;;;5012165;28;20230;-68
2021/05/09 01:38:49;;;;;;;3.97;2.50;;;8.50;99.90;;;;;;5011866;28;20207;-69
2021/05/09 01:41:15;;;;;;;2.80;2.60;;;8.60;99.90;;;;;;5012225;28;20223;-69
2021/05/09 01:43:42;;;;;;;4.75;2.42;;;8.70;99.90;;;;;;5011953;28;20202;-69
2021/05/09 01:46:08;;;;;;;3.28;2.97;;;8.70;99.90;;;;;;5012128;28;20693;-68
2021/05/09 01:48:34;;;;;;;3.25;2.95;;;8.50;99.90;;;;;;5011356;28;20206;-69
2021/05/09 01:51:00;;;;;;;3.47;2.42;;;8.40;99.90;;;;;;5011978;28;20230;-69
2021/05/09 01:53:27;;;;;;;3.30;2.53;;;8.30;99.90;;;;;;5011841;28;20701;-69
2021/05/09 01:55:54;;;;;;;2.60;2.40;;;8.30;99.90;;;;;;5011981;28;20276;-70
2021/05/09 01:58:20;;;;;;;3.38;2.40;;;8.20;99.90;;;;;;5011167;28;20206;-70
2021/05/09 02:00:47;;;;;;;2.35;2.08;;;8.20;99.90;;;;;;5011776;28;20266;-69
2021/05/09 02:03:13;;;;;;;2.20;2.00;;;8.20;99.90;;;;;;5011831;28;20206;-69
2021/05/09 02:05:39;;;;;;;3.53;2.60;;;8.30;99.90;;;;;;5011523;28;20221;-69
2021/05/09 02:08:05;;;;;;;3.58;2.40;;;8.20;99.90;;;;;;5011184;28;20205;-68
2021/05/09 02:10:32;;;;;;;3.35;2.47;;;8.10;99.90;;;;;;5011477;28;20230;-69
2021/05/09 02:12:59;;;;;;;2.00;1.90;;;8.10;99.90;;;;;;5011690;28;20206;-68
2021/05/09 02:15:25;;;;;;;2.70;2.30;;;8.00;99.90;;;;;;5011204;28;20276;-70
2021/05/09 02:17:51;;;;;;;5.53;2.50;;;8.00;99.90;;;;;;5011278;28;20213;-69
2021/05/09 02:20:17;;;;;;;4.43;2.10;;;8.00;99.90;;;;;;5011626;28;20226;-69
2021/05/09 02:22:44;;;;;;;2.55;2.35;;;7.90;99.90;;;;;;5011718;28;20205;-70
2021/05/09 02:25:10;;;;;;;2.42;2.22;;;7.90;99.90;;;;;;5012090;28;20662;-70
2021/05/09 02:27:37;;;;;;;2.33;2.00;;;7.90;99.90;;;;;;5011317;28;20202;-69
2021/05/09 02:30:06;;;;;;;3.10;1.83;;;7.90;99.90;;;;;;5011137;28;20227;-70
2021/05/09 02:32:32;;;;;;;2.08;1.88;;;7.80;99.90;;;;;;5011776;28;20221;-70
2021/05/09 02:34:58;;;;;;;3.72;2.38;;;7.80;99.90;;;;;;5010281;28;20552;-70
2021/05/09 02:37:25;;;;;;;2.60;2.30;;;7.80;99.90;;;;;;5011009;28;20222;-70
2021/05/09 02:39:51;;;;;;;5.05;2.10;;;7.90;99.90;;;;;;5010710;28;20222;-70
2021/05/09 02:42:18;;;;;;;1.65;1.55;;;7.90;99.90;;;;;;5011245;28;20214;-69
2021/05/09 02:44:45;;;;;;;2.10;1.90;;;7.90;99.90;;;;;;5011177;28;20623;-70
2021/05/09 02:47:27;;;;;;;2.67;1.77;;;7.90;99.90;;;;;;5011086;28;20264;-70
2021/05/09 02:49:54;;;;;;;2.50;2.22;;;8.00;99.90;;;;;;5010395;28;20238;-70
2021/05/09 02:52:20;;;;;;;3.17;2.50;;;8.10;99.90;;;;;;5011003;28;20249;-70
2021/05/09 02:54:46;;;;;;;2.15;1.98;;;8.10;99.90;;;;;;5010626;28;20217;-70
2021/05/09 02:57:13;;;;;;;3.00;2.50;;;8.10;99.90;;;;;;5010818;28;20713;-69
2021/05/09 02:59:39;;;;;;;2.03;1.83;;;8.10;99.90;;;;;;5010018;28;20280;-69
2021/05/09 03:02:05;;;;;;;3.67;2.45;;;8.10;99.90;;;;;;5010970;28;20218;-70
2021/05/09 03:04:32;;;;;;;2.90;2.00;;;8.10;99.90;;;;;;5010788;28;20217;-69
2021/05/09 03:06:58;;;;;;;2.25;2.03;;;8.10;99.90;;;;;;5010734;28;20206;-69
2021/05/09 03:09:25;;;;;;;3.05;1.80;;;8.10;99.90;;;;;;5009883;28;20606;-69
2021/05/09 03:11:51;;;;;;;2.38;2.17;;;8.20;99.90;;;;;;5010605;28;20206;-69
2021/05/09 03:14:17;;;;;;;3.30;2.20;;;8.20;99.90;;;;;;5010531;28;20203;-69
2021/05/09 03:16:44;;;;;;;2.55;2.30;;;8.20;99.90;;;;;;5010500;28;20589;-69
2021/05/09 03:19:10;;;;;;;2.65;2.13;;;8.20;99.90;;;;;;5009942;28;20214;-69
2021/05/09 03:21:40;;;;;;;5.07;2.22;;;8.20;99.90;;;;;;5010334;28;20205;-70
2021/05/09 03:24:07;;;;;;;2.10;1.90;;;8.20;99.90;;;;;;5010668;28;20209;-69
2021/05/09 03:26:34;;;;;;;1.67;1.50;;;8.20;99.90;;;;;;5010267;28;20206;-69
2021/05/09 03:29:00;;;;;;;3.05;2.10;;;8.10;99.90;;;;;;5009775;28;20202;-69
2021/05/09 03:31:27;;;;;;;4.82;2.60;;;8.10;99.90;;;;;;5010076;28;20198;-69
2021/05/09 03:33:53;;;;;;;2.85;2.05;;;8.10;99.90;;;;;;5010385;28;20199;-69
2021/05/09 03:36:19;;;;;;;4.03;3.53;;;8.10;99.90;;;;;;5010043;28;20232;-69
2021/05/09 03:38:46;;;;;;;3.42;2.10;;;8.00;99.90;;;;;;5009554;28;20656;-70
2021/05/09 03:41:12;;;;;;;2.40;1.90;;;8.00;99.90;;;;;;5010161;28;20726;-68
2021/05/09 03:43:39;;;;;;;2.65;1.98;;;8.00;99.90;;;;;;5009869;28;20221;-69
2021/05/09 03:46:05;;;;;;;3.38;3.05;;;8.10;99.90;;;;;;5009780;28;20203;-69
2021/05/09 03:48:31;;;;;;;4.35;3.33;;;8.00;99.90;;;;;;5009335;28;20274;-69
2021/05/09 03:50:58;;;;;;;3.67;2.63;;;8.00;99.90;;;;;;5009561;28;20571;-69
2021/05/09 03:53:24;;;;;;;4.95;2.47;;;8.00;99.90;;;;;;5009748;28;20250;-69
2021/05/09 03:55:51;;;;;;;2.10;1.90;;;8.00;99.90;;;;;;5009927;28;20226;-69
2021/05/09 03:58:18;;;;;;;2.40;2.20;;;8.00;99.90;;;;;;5009337;28;20264;-68
2021/05/09 04:00:44;;;;;;;2.97;2.40;;;8.00;99.90;;;;;;5009609;28;20725;-67
2021/05/09 04:03:24;;;;;;;3.13;2.78;;;8.00;99.90;;;;;;5009885;28;20210;-68
2021/05/09 04:05:52;;;;;;;2.40;2.20;;;8.00;99.90;;;;;;5009801;28;20202;-69
2021/05/09 04:08:19;;;;;;;2.17;1.95;;;8.00;99.90;;;;;;5009176;28;20198;-69
2021/05/09 04:10:45;;;;;;;3.60;2.30;;;8.10;99.90;;;;;;5009679;28;20712;-69
2021/05/09 04:13:12;;;;;;;2.30;2.10;;;8.00;99.90;;;;;;5009653;28;20248;-69
2021/05/09 04:15:39;;;;;;;3.08;1.90;;;8.00;99.90;;;;;;5009604;28;20229;-69
2021/05/09 04:18:05;;;;;;;2.30;2.10;;;8.00;99.90;;;;;;5009244;28;20208;-69
2021/05/09 04:20:32;;;;;;;2.45;2.25;;;8.00;99.90;;;;;;5009316;28;20222;-68
2021/05/09 04:23:12;;;;;;;1.95;1.85;;;8.00;99.90;;;;;;5009583;28;20206;-70
2021/05/09 04:25:39;;;;;;;3.85;2.17;;;8.10;99.90;;;;;;5009341;28;20751;-69
2021/05/09 04:28:05;;;;;;;2.33;2.13;;;8.10;99.90;;;;;;5009055;28;20573;-70
2021/05/09 04:30:33;;;;;;;3.30;2.30;;;8.20;99.90;;;;;;5009232;28;20226;-69
2021/05/09 04:33:00;;;;;;;2.40;2.20;;;8.20;99.90;;;;;;5009857;28;20206;-69
2021/05/09 04:35:27;;;;;;;2.40;2.20;;;8.30;99.90;;;;;;5009090;28;20202;-70
2021/05/09 04:37:53;;;;;;;3.33;2.30;;;8.40;99.90;;;;;;5009090;28;20576;-69
2021/05/09 04:40:19;;;;;;;2.10;1.90;;;8.50;99.90;;;;;;5009247;28;20349;-69
2021/05/09 04:42:46;;;;;;;2.50;1.98;;;8.50;99.90;;;;;;5009240;28;20576;-70
2021/05/09 04:45:13;;;;;;;2.53;1.80;;;8.50;99.90;;;;;;5009445;28;20202;-68
2021/05/09 04:47:40;;;;;;;2.47;2.28;;;8.60;99.90;;;;;;5009110;28;20203;-70
2021/05/09 04:50:08;;;;;;;2.72;2.08;;;8.60;99.90;;;;;;5009206;28;20238;-69
2021/05/09 04:52:34;;;;;;;2.00;1.85;;;8.60;99.90;;;;;;5009014;28;20202;-68
2021/05/09 04:55:00;;;;;;;3.15;2.58;;;8.60;99.90;;;;;;5009341;28;20206;-68
2021/05/09 04:57:26;;;;;;;2.20;2.00;;;8.70;99.90;;;;;;5009235;28;20241;-68
2021/05/09 04:59:52;;;;;;;2.72;2.33;;;8.70;99.90;;;;;;5012578;28;20226;-68
2021/05/09 05:02:19;;;;;;;1.70;1.60;;;8.70;99.90;;;;;;5012947;28;20246;-68
2021/05/09 05:04:46;;;;;;;2.28;1.83;;;8.70;99.90;;;;;;5012907;28;20210;-68
2021/05/09 05:07:12;;;;;;;3.10;2.60;;;8.80;99.90;;;;;;5012940;28;20194;-69
2021/05/09 05:09:40;;;;;;;2.67;1.98;;;8.80;99.90;;;;;;5012185;28;20226;-68
2021/05/09 05:12:08;;;;;;;2.70;1.50;;;8.90;99.90;;;;;;5013092;28;20211;-69
2021/05/09 05:14:34;;;;;;;2.40;2.20;;;8.90;99.90;;;;;;5012669;28;20218;-69
2021/05/09 05:17:01;;;;;;;2.45;2.25;;;9.00;99.90;;;;;;5012880;28;20642;-69
2021/05/09 05:19:27;;;;;;;2.92;2.35;;;9.00;99.90;;;;;;5011856;28;20241;-69
2021/05/09 05:21:54;;;;;;;3.88;2.70;;;9.20;99.90;;;;;;5012929;28;20599;-69
2021/05/09 05:24:20;;;;;;;2.47;2.28;;;9.20;99.90;;;;;;5012453;28;20213;-68
2021/05/09 05:26:47;;;;;;;2.42;2.22;;;9.40;99.90;;;;;;5012609;28;20209;-69
2021/05/09 05:29:13;;;;;;;3.40;2.83;;;9.50;99.90;;;;;;5012119;28;20206;-69
2021/05/09 05:31:39;;;;;;;9.52;3.22;;;9.60;99.90;;;;;;5012308;28;20697;-69
2021/05/09 05:34:05;;;;;;;3.00;2.70;;;9.70;99.90;;;;;;5012623;28;20215;-68
2021/05/09 05:36:31;;;;;;;3.70;3.30;;;9.80;99.90;;;;;;5012138;28;20563;-70
2021/05/09 05:38:59;;;;;;;3.55;3.05;;;10.00;99.90;;;;;;5011784;28;20202;-69
2021/05/09 05:41:25;;;;;;;5.00;3.85;;;10.10;99.90;;;;;;5011983;28;20621;-70
2021/05/09 05:43:51;;;;;;;4.78;3.45;;;10.20;99.90;;;;;;5012339;28;20207;-69
2021/05/09 05:46:17;;;;;;;4.43;3.35;;;10.40;99.90;;;;;;5012131;28;20198;-69
2021/05/09 05:48:44;;;;;;;4.28;2.92;;;10.50;99.90;;;;;;5011593;28;20202;-70
2021/05/09 05:51:10;;;;;;;3.40;3.10;;;10.70;99.90;;;;;;5106683;22;20238;-74
2021/05/09 05:53:36;;;;;;;3.42;2.80;;;10.80;99.90;;;;;;5012252;28;20198;-73
2021/05/09 05:56:04;;;;;;;6.93;3.10;;;10.90;99.90;;;;;;5011755;28;20222;-73
2021/05/09 05:58:30;;;;;;;3.72;2.90;;;11.00;99.90;;;;;;5010572;28;20228;-73
2021/05/09 06:00:57;;;;;;;3.20;2.45;;;11.20;99.90;;;;;;5011417;28;20276;-71
2021/05/09 06:03:23;;;;;;;3.45;2.90;;;11.40;99.90;;;;;;5010993;28;20289;-72
2021/05/09 06:05:50;;;;;;;2.67;2.28;;;11.60;99.90;;;;;;5011341;28;20198;-73
2021/05/09 06:08:17;;;;;;;2.47;2.28;;;11.80;99.90;;;;;;5010538;28;20594;-73
2021/05/09 06:10:43;;;;;;;2.85;2.22;;;12.10;99.90;;;;;;5011358;28;20219;-72
2021/05/09 06:13:10;;;;;;;2.15;1.95;;;12.30;99.90;;;;;;5010984;28;20677;-72
2021/05/09 06:15:37;;;;;;;2.78;2.30;;;12.50;99.90;;;;;;5010881;28;20673;-73
2021/05/09 06:18:04;;;;;;;2.43;2.23;;;12.80;99.90;;;;;;5010696;28;20229;-72
2021/05/09 06:20:30;;;;;;;2.60;2.07;;;13.00;99.90;;;;;;5011056;28;20512;-72
2021/05/09 06:22:57;;;;;;;1.73;1.57;;;13.30;99.90;;;;;;5011146;28;20852;-72
2021/05/09 06:25:24;;;;;;;2.83;1.93;;;13.60;99.90;;;;;;5010899;28;20461;-72
2021/05/09 06:27:51;;;;;;;3.23;1.90;;;14.00;99.90;;;;;;5010836;28;20461;-72
2021/05/09 06:30:19;;;;;;;5.00;2.40;;;14.30;99.90;;;;;;5010927;28;20513;-72
2021/05/09 06:32:45;;;;;;;2.53;1.93;;;14.50;99.90;;;;;;5011458;28;20467;-73
2021/05/09 06:35:12;;;;;;;2.50;1.83;;;14.60;99.90;;;;;;5011354;28;20488;-73
2021/05/09 06:37:39;;;;;;;2.10;1.90;;;14.70;99.90;;;;;;5010928;28;20485;-72
2021/05/09 06:40:07;;;;;;;1.60;1.50;;;14.90;99.90;;;;;;5011008;28;20520;-72
2021/05/09 06:42:33;;;;;;;1.60;1.50;;;15.10;99.90;;;;;;5011424;28;20885;-72
2021/05/09 06:45:03;;;;;;;1.90;1.80;;;15.40;99.90;;;;;;5011170;28;20560;-71
2021/05/09 06:47:31;;;;;;;2.10;1.47;;;15.70;99.90;;;;;;5010982;28;20461;-72
2021/05/09 06:49:57;;;;;;;1.90;1.80;;;15.90;99.90;;;;;;5010272;28;20544;-73
2021/05/09 06:52:23;;;;;;;2.50;1.97;;;16.10;99.90;;;;;;5010675;28;20469;-73
2021/05/09 06:54:50;;;;;;;1.80;1.70;;;16.30;99.90;;;;;;5010430;28;20969;-72
2021/05/09 06:57:16;;;;;;;1.87;1.60;;;16.40;99.90;;;;;;5010271;28;20494;-72
2021/05/09 06:59:43;;;;;;;2.40;2.20;;;16.60;99.90;;;;;;5009767;28;20495;-72
2021/05/09 07:02:09;;;;;;;2.92;2.00;;;16.70;99.90;;;;;;5009525;28;20531;-71
2021/05/09 07:04:36;;;;;;;1.63;1.53;;;16.80;99.90;;;;;;5010622;28;20484;-70
2021/05/09 07:07:02;;;;;;;2.87;1.67;;;16.90;99.90;;;;;;5010518;28;20519;-71
2021/05/09 07:09:28;;;;;;;2.13;1.90;;;17.00;99.90;;;;;;5009769;28;20500;-70
2021/05/09 07:11:55;;;;;;;1.83;1.73;;;17.00;99.90;;;;;;5010204;28;20494;-70
2021/05/09 07:14:21;;;;;;;1.40;1.30;;;17.20;99.20;;;;;;5010319;28;20461;-71
2021/05/09 07:16:47;;;;;;;2.20;1.80;;;17.40;98.30;;;;;;5009727;28;20493;-71
2021/05/09 07:19:14;;;;;;;1.90;1.60;;;17.50;98.30;;;;;;5010114;28;20457;-71
2021/05/09 07:21:44;;;;;;;2.47;1.60;;;17.60;98.00;;;;;;5010293;28;20469;-70
2021/05/09 07:24:11;;;;;;;1.53;1.43;;;17.80;97.10;;;;;;5011156;28;20535;-72
2021/05/09 07:26:37;;;;;;;2.80;1.90;;;17.90;97.00;;;;;;5011504;28;20465;-70
2021/05/09 07:29:04;;;;;;;2.23;1.80;;;18.10;96.40;;;;;;5009936;28;20496;-71
2021/05/09 07:31:31;;;;;;;6.00;2.87;;;18.30;96.20;;;;;;5010701;28;20461;-71
2021/05/09 07:33:58;;;;;;;1.50;1.30;;;18.30;96.60;;;;;;5008082;28;20485;-71
2021/05/09 07:36:24;;;;;;;1.70;1.53;;;18.50;96.30;;;;;;5008614;28;20493;-72
2021/05/09 07:38:51;;;;;;;1.77;1.43;;;18.70;96.30;;;;;;5009994;28;20488;-71
2021/05/09 07:41:17;;;;;;;5.93;1.63;;;18.80;95.50;;;;;;5010308;28;20489;-71
2021/05/09 07:43:46;;;;;;;2.43;1.70;;;18.90;95.90;;;;;;5010436;28;20461;-71
2021/05/09 07:46:12;;;;;;;1.60;1.50;;;19.00;96.90;;;;;;5010169;28;20453;-72
2021/05/09 07:48:38;;;;;;;1.87;1.63;;;19.20;96.30;;;;;;5009928;28;20519;-71
2021/05/09 07:51:05;;;;;;;2.07;1.87;;;19.40;96.40;;;;;;5010280;28;20493;-70
2021/05/09 07:53:31;;;;;;;2.33;1.87;;;19.60;97.80;;;;;;5009962;28;21132;-70
2021/05/09 07:55:58;;;;;;;1.70;1.53;;;19.70;95.10;;;;;;5009780;28;20555;-71
2021/05/09 07:58:25;;;;;;;1.90;1.70;;;19.80;95.20;;;;;;5008623;28;20491;-70
2021/05/09 08:00:51;;;;;;;2.03;1.90;;;19.90;98.30;;;;;;5009133;28;20535;-70
2021/05/09 08:03:19;;;;;;;2.47;2.27;;;19.90;99.40;;;;;;5025764;28;20460;-70
2021/05/09 08:05:45;;;;;;;2.00;1.80;;;20.10;97.70;;;;;;5027689;28;20550;-70
2021/05/09 08:08:12;;;;;;;3.00;1.87;;;20.20;98.40;;;;;;5029335;28;20490;-70
2021/05/09 08:10:41;;;;;;;4.47;2.20;;;20.30;99.60;;;;;;5021040;28;20481;-70
2021/05/09 08:13:10;;;;;;;2.60;1.80;;;20.40;99.80;;;;;;5010567;28;20461;-71
2021/05/09 08:15:37;;;;;;;2.80;1.67;;;20.50;95.70;;;;;;5010502;28;20466;-70
2021/05/09 08:18:03;;;;;;;3.23;1.73;;;20.60;99.30;;;;;;5009539;28;20468;-70
2021/05/09 08:20:31;;;;;;;2.43;2.23;;;20.80;98.90;;;;;;5009882;28;20866;-71
2021/05/09 08:22:57;;;;;;;4.40;2.43;;;20.90;98.70;;;;;;5009962;28;21242;-71
2021/05/09 08:25:24;;;;;;;3.20;2.10;;;21.00;98.10;;;;;;5009582;28;20468;-71
2021/05/09 08:27:54;;;;;;;2.77;1.90;;;21.20;98.90;;;;;;5009365;28;20464;-72
2021/05/09 08:30:25;;;;;;;3.77;1.67;;;21.30;97.70;;;;;;5009804;28;20484;-72
2021/05/09 08:32:52;;;;;;;2.30;2.10;;;21.50;97.20;;;;;;5010752;28;20551;-71
2021/05/09 08:35:18;;;;;;;2.37;1.97;;;21.70;96.80;;;;;;5013458;28;21264;-72
2021/05/09 08:37:45;;;;;;;1.97;1.80;;;21.90;96.10;;;;;;5006538;28;20477;-71
2021/05/09 08:40:14;;;;;;;4.27;2.50;;;22.00;97.20;;;;;;5007504;28;20481;-71
2021/05/09 08:42:41;;;;;;;2.60;1.70;;;22.20;96.90;;;;;;5006586;28;20457;-72
2021/05/09 08:45:09;;;;;;;2.60;1.90;;;22.40;95.40;;;;;;5008821;28;20469;-72
2021/05/09 08:47:40;;;;;;;3.23;1.77;;;22.60;94.80;;;;;;5008719;28;20462;-73
2021/05/09 08:50:08;;;;;;;2.03;1.67;;;22.90;93.00;;;;;;5006928;28;20489;-72
2021/05/09 08:52:36;;;;;;;3.30;2.43;;;23.00;93.60;;;;;;5007714;28;20479;-72
2021/05/09 08:55:04;;;;;;;2.50;1.80;;;23.30;94.10;;;;;;5008766;28;20842;-72
2021/05/09 08:57:30;;;;;;;3.93;2.10;;;23.40;92.60;;;;;;5008372;28;20496;-71
2021/05/09 08:59:57;;;;;;;2.73;2.43;;;23.60;93.90;;;;;;5006744;28;20909;-71
2021/05/09 09:02:23;;;;;;;1.50;1.37;;;23.90;92.40;;;;;;5008798;28;20461;-71
2021/05/09 09:04:52;;;;;;;1.80;1.50;;;24.20;86.40;;;;;;5008901;28;20476;-71
2021/05/09 09:07:19;;;;;;;2.17;1.57;;;24.40;89.20;;;;;;5008169;28;20504;-73
2021/05/09 09:09:47;;;;;;;1.77;1.43;;;24.60;84.60;;;;;;5006672;28;20477;-72
2021/05/09 09:12:15;;;;;;;1.60;1.43;;;24.90;79.30;;;;;;5008628;28;20472;-72
2021/05/09 09:14:56;;;;;;;3.00;1.40;;;25.00;77.70;;;;;;5008389;28;20499;-72
2021/05/09 09:17:23;;;;;;;1.67;1.43;;;25.30;83.70;;;;;;5009444;28;20527;-70
2021/05/09 09:20:03;;;;;;;1.70;1.27;;;25.60;79.60;;;;;;5006481;28;20484;-70
2021/05/09 09:23:09;;;;;;;3.20;1.57;;;25.70;73.90;;;;;;5008402;28;20464;-71
2021/05/09 09:25:38;;;;;;;1.83;1.70;;;25.70;72.40;;;;;;5007234;28;20469;-71
2021/05/09 09:28:05;;;;;;;2.87;2.40;;;25.80;75.10;;;;;;5008011;28;20922;-71
2021/05/09 09:30:31;;;;;;;2.10;1.90;;;26.00;76.10;;;;;;5007752;28;20481;-71
2021/05/09 09:33:08;;;;;;;1.87;1.43;;;26.40;78.70;;;;;;5008398;28;20519;-71
2021/05/09 09:35:36;;;;;;;1.70;1.33;;;26.60;74.60;;;;;;5010058;28;20480;-72
2021/05/09 09:38:21;;;;;;;1.50;1.40;;;26.90;70.80;;;;;;5009966;28;20489;-70
2021/05/09 09:41:06;;;;;;;2.00;1.50;;;27.10;68.60;;;;;;5009458;28;20487;-70
2021/05/09 09:43:33;;;;;;;1.70;1.37;;;27.30;72.40;;;;;;5008962;28;20501;-69
2021/05/09 09:45:59;;;;;;;1.97;1.30;;;27.40;67.90;;;;;;5007697;28;20461;-70
2021/05/09 09:48:38;;;;;;;1.53;1.40;;;27.30;65.30;;;;;;5008652;28;20469;-71
2021/05/09 09:51:05;;;;;;;3.70;2.07;;;27.30;68.80;;;;;;5009903;28;20489;-71
2021/05/09 09:53:34;;;;;;;2.10;1.37;;;27.70;69.80;;;;;;5009842;28;20840;-70
2021/05/09 09:56:03;;;;;;;1.90;1.70;;;28.00;66.90;;;;;;5009012;28;20449;-70
2021/05/09 09:58:48;;;;;;;1.50;1.20;;;28.00;67.40;;;;;;5028726;28;20460;-70
2021/05/09 10:01:18;;;;;;;2.43;1.50;;;28.00;66.10;;;;;;5029444;28;21030;-69
2021/05/09 10:03:46;;;;;;;1.80;1.70;;;28.20;66.80;;;;;;5029186;28;20565;-67
2021/05/09 10:06:14;;;;;;;1.40;1.30;;;28.30;64.40;;;;;;5028691;28;20673;-70
2021/05/09 10:08:42;;;;;;;1.87;1.27;;;28.50;65.80;;;;;;5027760;28;21014;-68
2021/05/09 10:11:09;;;;;;;1.50;1.40;;;28.50;61.80;;;;;;5028276;28;20972;-69
2021/05/09 10:13:36;;;;;;;2.50;1.57;;;28.60;64.80;;;;;;5029039;28;20890;-69
2021/05/09 10:16:05;;;;;;;1.53;1.43;;;28.70;62.20;;;;;;5028593;28;20472;-69
2021/05/09 10:18:33;;;;;;;1.30;1.20;;;28.70;62.70;;;;;;5027739;28;20478;-69
2021/05/09 10:21:00;;;;;;;1.47;1.30;;;28.70;59.80;;;;;;5029072;28;20489;-69
2021/05/09 10:23:28;;;;;;;1.77;1.33;;;28.90;62.60;;;;;;5028064;28;20554;-69
2021/05/09 10:25:56;;;;;;;1.90;1.60;;;28.70;59.90;;;;;;5028032;28;20466;-69
2021/05/09 10:28:25;;;;;;;1.50;1.40;;;28.70;61.10;;;;;;5024162;28;20564;-70
2021/05/09 10:30:53;;;;;;;2.20;1.43;;;28.90;61.90;;;;;;5008277;28;20490;-70
2021/05/09 10:33:42;;;;;;;1.33;1.23;;;28.80;61.10;;;;;;5008038;28;20463;-70
2021/05/09 10:36:11;;;;;;;1.67;1.30;;;29.10;61.10;;;;;;5008073;28;20481;-71
2021/05/09 10:39:11;;;;;;;2.60;1.57;;;29.60;61.90;;;;;;5007958;28;21034;-68
2021/05/09 10:41:38;;;;;;;3.53;1.77;;;30.10;59.50;;;;;;5020141;28;21304;-69
2021/05/09 10:44:41;;;;;;;1.80;1.30;;;30.10;57.50;;;;;;5027845;28;20561;-69
2021/05/09 10:47:12;;;;;;;1.70;1.50;;;30.20;58.20;;;;;;5017605;28;20510;-68
2021/05/09 10:50:20;;;;;;;1.50;1.40;;;30.20;58.90;;;;;;5024484;28;20481;-67
2021/05/09 10:52:48;;;;;;;1.73;1.50;;;30.00;58.70;;;;;;5007199;28;20552;-69
2021/05/09 10:55:40;;;;;;;2.60;1.50;;;30.00;57.40;;;;;;5006075;28;20461;-70
2021/05/09 10:58:08;;;;;;;2.40;1.43;;;30.00;58.60;;;;;;5006067;28;20578;-68
2021/05/09 11:01:15;;;;;;;1.97;1.40;;;30.10;57.60;;;;;;5006038;28;20493;-69
2021/05/09 11:03:51;;;;;;;1.73;1.57;;;30.30;56.60;;;;;;5006689;28;20459;-68
2021/05/09 11:06:18;;;;;;;1.43;1.27;;;30.50;56.20;;;;;;5006546;28;20829;-67
2021/05/09 11:08:58;;;;;;;1.80;1.60;;;30.80;58.10;;;;;;5005774;28;20461;-70
2021/05/09 11:12:03;;;;;;;2.03;1.63;;;31.40;58.70;;;;;;5006706;28;20958;-70
2021/05/09 11:14:31;;;;;;;1.57;1.47;;;31.50;55.40;;;;;;5006758;28;20816;-69
2021/05/09 11:17:02;;;;;;;1.70;1.57;;;31.10;55.90;;;;;;5007371;28;20526;-71
2021/05/09 11:19:40;;;;;;;1.53;1.43;;;30.40;55.30;;;;;;5006822;28;20991;-70
2021/05/09 11:22:08;;;;;;;1.57;1.23;;;30.40;56.30;;;;;;5007161;28;21000;-70
2021/05/09 11:24:37;;;;;;;1.40;1.10;;;30.90;57.30;;;;;;5006569;28;20460;-71
2021/05/09 11:27:10;;;;;;;1.63;1.53;;;30.80;54.30;;;;;;5006725;28;20471;-71
2021/05/09 11:29:40;;;;;;;3.90;1.70;;;30.50;55.80;;;;;;5004547;28;20933;-70
2021/05/09 11:32:13;;;;;;;1.80;1.60;;;30.70;55.50;;;;;;5006766;28;21032;-71
2021/05/09 11:34:49;;;;;;;1.30;1.20;;;31.00;58.80;;;;;;5006083;28;20496;-69
2021/05/09 11:37:16;;;;;;;1.87;1.50;;;30.90;54.20;;;;;;5006480;28;21471;-68
2021/05/09 11:39:42;;;;;;;1.83;1.50;;;30.40;53.90;;;;;;5006060;28;20533;-68
2021/05/09 11:42:12;;;;;;;2.03;1.47;;;30.00;54.50;;;;;;5008193;28;21120;-68
2021/05/09 11:44:41;;;;;;;1.47;1.37;;;29.80;56.00;;;;;;5007516;28;20466;-68
2021/05/09 11:47:11;;;;;;;1.87;1.60;;;30.00;53.50;;;;;;5007391;28;20467;-69
2021/05/09 11:49:39;;;;;;;1.90;1.50;;;30.40;56.00;;;;;;5007858;28;20510;-70
2021/05/09 11:52:09;;;;;;;1.50;1.30;;;30.80;53.60;;;;;;5007745;28;21016;-70
2021/05/09 11:54:38;;;;;;;3.90;1.40;;;31.20;57.10;;;;;;5007015;28;20956;-69
2021/05/09 11:57:06;;;;;;;1.87;1.20;;;31.80;52.60;;;;;;5006923;28;20907;-69
2021/05/09 11:59:44;;;;;;;3.30;1.40;;;31.80;52.70;;;;;;5004887;28;20480;-71
2021/05/09 12:02:28;;;;;;;1.47;1.37;;;31.80;55.20;;;;;;5004146;28;20502;-70
2021/05/09 12:04:58;;;;;;;1.60;1.43;;;32.30;54.50;;;;;;5004018;28;20480;-69
2021/05/09 12:07:27;;;;;;;1.30;1.20;;;32.30;52.90;;;;;;5005873;28;20456;-71
2021/05/09 12:10:03;;;;;;;1.60;1.30;;;31.80;52.10;;;;;;5004281;28;20483;-71
2021/05/09 12:12:32;;;;;;;1.30;1.20;;;31.00;52.00;;;;;;5008148;28;20942;-71
2021/05/09 12:15:13;;;;;;;1.60;1.40;;;30.70;53.00;;;;;;5006830;28;20477;-71
2021/05/09 12:17:54;;;;;;;3.90;1.70;;;31.00;53.60;;;;;;5005530;28;20567;-70
2021/05/09 12:20:32;;;;;;;1.67;1.30;;;31.40;55.30;;;;;;5005460;28;20829;-70
2021/05/09 12:23:01;;;;;;;1.70;1.60;;;32.20;53.20;;;;;;5004816;28;20453;-69
2021/05/09 12:25:33;;;;;;;2.17;1.73;;;32.60;51.80;;;;;;5006052;28;20494;-71
2021/05/09 12:28:13;;;;;;;2.10;1.50;;;32.50;52.70;;;;;;5002698;28;20513;-68
2021/05/09 12:30:41;;;;;;;1.70;1.43;;;32.30;53.30;;;;;;5003027;28;20490;-67
2021/05/09 12:33:09;;;;;;;1.77;1.27;;;32.30;55.20;;;;;;5005869;28;20462;-67
2021/05/09 12:35:44;;;;;;;2.90;1.40;;;32.70;52.60;;;;;;5006033;28;20461;-70
2021/05/09 12:38:11;;;;;;;1.37;1.27;;;33.10;55.10;;;;;;5001567;28;20493;-70
2021/05/09 12:40:39;;;;;;;2.50;1.37;;;33.10;52.20;;;;;;5006414;28;20481;-67
2021/05/09 12:43:08;;;;;;;1.90;1.40;;;32.80;52.10;;;;;;5006212;28;20471;-67
2021/05/09 12:45:41;;;;;;;1.43;1.30;;;32.50;52.00;;;;;;5005919;28;20538;-70
2021/05/09 12:48:10;;;;;;;1.47;1.30;;;32.40;51.90;;;;;;5004676;28;20459;-70
2021/05/09 12:50:54;;;;;;;2.50;1.30;;;31.90;51.20;;;;;;5005963;28;20488;-69
2021/05/09 12:53:51;;;;;;;1.70;1.43;;;31.50;52.00;;;;;;5005574;28;20468;-70
2021/05/09 12:56:23;;;;;;;2.87;1.40;;;31.70;53.10;;;;;;4946566;28;20457;-71
2021/05/09 12:59:08;;;;;;;2.00;1.30;;;32.20;51.30;;;;;;4977312;28;20464;-73